sensor_id;sensor_type;location;lat;lon;timestamp;P1;durP1;ratioP1;P2;durP2;ratioP2
71959;SDS011;59832;51.146;14.024;2022-07-01T00:00:03;16.50;;;13.23;;
71959;SDS011;59832;51.146;14.024;2022-07-01T00:04:57;15.40;;;13.80;;
71959;SDS011;59832;51.146;14.024;2022-07-01T00:07:23;14.63;;;13.13;;
71959;SDS011;59832;51.146;14.024;2022-07-01T00:09:50;17.65;;;13.57;;
71959;SDS011;59832;51.146;14.024;2022-07-01T00:12:16;18.73;;;14.57;;
71959;SDS011;59832;51.146;14.024;2022-07-01T00:14:42;14.83;;;13.23;;
71959;SDS011;59832;51.146;14.024;2022-07-01T00:17:09;14.23;;;12.80;;
71959;SDS011;59832;51.146;14.024;2022-07-01T00:19:35;14.17;;;12.73;;
71959;SDS011;59832;51.146;14.024;2022-07-01T00:22:02;15.35;;;12.40;;
71959;SDS011;59832;51.146;14.024;2022-07-01T00:24:29;15.60;;;12.18;;
71959;SDS011;59832;51.146;14.024;2022-07-01T00:26:55;13.63;;;12.38;;
71959;SDS011;59832;51.146;14.024;2022-07-01T00:29:22;15.27;;;13.50;;
71959;SDS011;59832;51.146;14.024;2022-07-01T00:31:48;18.42;;;13.35;;
71959;SDS011;59832;51.146;14.024;2022-07-01T00:34:15;14.63;;;12.82;;
71959;SDS011;59832;51.146;14.024;2022-07-01T00:36:41;16.37;;;13.13;;
71959;SDS011;59832;51.146;14.024;2022-07-01T00:39:08;16.45;;;12.98;;
71959;SDS011;59832;51.146;14.024;2022-07-01T00:41:34;17.80;;;12.02;;
71959;SDS011;59832;51.146;14.024;2022-07-01T00:44:01;14.93;;;12.93;;
71959;SDS011;59832;51.146;14.024;2022-07-01T00:46:27;19.47;;;12.87;;
71959;SDS011;59832;51.146;14.024;2022-07-01T00:48:54;23.17;;;13.32;;
71959;SDS011;59832;51.146;14.024;2022-07-01T00:51:21;14.88;;;13.27;;
71959;SDS011;59832;51.146;14.024;2022-07-01T00:53:49;20.02;;;12.98;;
71959;SDS011;59832;51.146;14.024;2022-07-01T00:56:16;17.75;;;13.35;;
71959;SDS011;59832;51.146;14.024;2022-07-01T00:58:44;18.25;;;13.68;;
71959;SDS011;59832;51.146;14.024;2022-07-01T01:01:11;19.73;;;13.82;;
71959;SDS011;59832;51.146;14.024;2022-07-01T01:03:38;16.67;;;13.07;;
71959;SDS011;59832;51.146;14.024;2022-07-01T01:06:04;14.55;;;13.07;;
71959;SDS011;59832;51.146;14.024;2022-07-01T01:08:31;18.33;;;13.68;;
71959;SDS011;59832;51.146;14.024;2022-07-01T01:10:57;20.65;;;13.93;;
71959;SDS011;59832;51.146;14.024;2022-07-01T01:13:24;14.68;;;13.07;;
71959;SDS011;59832;51.146;14.024;2022-07-01T01:15:50;20.88;;;13.98;;
71959;SDS011;59832;51.146;14.024;2022-07-01T01:18:17;15.45;;;13.30;;
71959;SDS011;59832;51.146;14.024;2022-07-01T01:20:43;21.03;;;13.40;;
71959;SDS011;59832;51.146;14.024;2022-07-01T01:23:10;19.77;;;13.00;;
71959;SDS011;59832;51.146;14.024;2022-07-01T01:25:36;18.02;;;11.85;;
71959;SDS011;59832;51.146;14.024;2022-07-01T01:28:03;23.65;;;12.80;;
71959;SDS011;59832;51.146;14.024;2022-07-01T01:30:29;15.98;;;13.25;;
71959;SDS011;59832;51.146;14.024;2022-07-01T01:32:56;18.77;;;13.45;;
71959;SDS011;59832;51.146;14.024;2022-07-01T01:35:22;17.58;;;12.65;;
71959;SDS011;59832;51.146;14.024;2022-07-01T01:37:49;19.77;;;12.98;;
71959;SDS011;59832;51.146;14.024;2022-07-01T01:40:15;26.83;;;12.73;;
71959;SDS011;59832;51.146;14.024;2022-07-01T01:42:43;17.88;;;12.70;;
71959;SDS011;59832;51.146;14.024;2022-07-01T01:45:10;22.00;;;12.50;;
71959;SDS011;59832;51.146;14.024;2022-07-01T01:47:37;22.48;;;13.10;;
71959;SDS011;59832;51.146;14.024;2022-07-01T01:50:05;17.40;;;12.57;;
71959;SDS011;59832;51.146;14.024;2022-07-01T01:52:34;22.38;;;11.98;;
71959;SDS011;59832;51.146;14.024;2022-07-01T01:55:00;18.45;;;11.18;;
71959;SDS011;59832;51.146;14.024;2022-07-01T01:57:27;18.35;;;12.00;;
71959;SDS011;59832;51.146;14.024;2022-07-01T01:59:54;21.05;;;12.27;;
71959;SDS011;59832;51.146;14.024;2022-07-01T02:02:20;24.87;;;12.30;;
71959;SDS011;59832;51.146;14.024;2022-07-01T02:04:47;18.83;;;11.10;;
71959;SDS011;59832;51.146;14.024;2022-07-01T02:09:40;21.83;;;12.45;;
71959;SDS011;59832;51.146;14.024;2022-07-01T02:12:07;22.17;;;11.88;;
71959;SDS011;59832;51.146;14.024;2022-07-01T02:14:34;26.90;;;12.18;;
71959;SDS011;59832;51.146;14.024;2022-07-01T02:17:00;20.73;;;12.80;;
71959;SDS011;59832;51.146;14.024;2022-07-01T02:19:27;20.17;;;12.73;;
71959;SDS011;59832;51.146;14.024;2022-07-01T02:21:53;23.23;;;12.73;;
71959;SDS011;59832;51.146;14.024;2022-07-01T02:24:20;19.30;;;11.73;;
71959;SDS011;59832;51.146;14.024;2022-07-01T02:29:13;18.55;;;11.98;;
71959;SDS011;59832;51.146;14.024;2022-07-01T02:31:40;19.80;;;11.60;;
71959;SDS011;59832;51.146;14.024;2022-07-01T02:34:07;14.80;;;11.27;;
71959;SDS011;59832;51.146;14.024;2022-07-01T02:36:33;20.63;;;12.43;;
71959;SDS011;59832;51.146;14.024;2022-07-01T02:39:00;16.43;;;12.20;;
71959;SDS011;59832;51.146;14.024;2022-07-01T02:41:26;20.83;;;12.20;;
71959;SDS011;59832;51.146;14.024;2022-07-01T02:43:53;15.73;;;12.10;;
71959;SDS011;59832;51.146;14.024;2022-07-01T02:46:19;17.67;;;11.40;;
71959;SDS011;59832;51.146;14.024;2022-07-01T02:48:46;15.35;;;11.75;;
71959;SDS011;59832;51.146;14.024;2022-07-01T02:51:12;13.47;;;11.07;;
71959;SDS011;59832;51.146;14.024;2022-07-01T02:53:39;18.35;;;12.05;;
71959;SDS011;59832;51.146;14.024;2022-07-01T02:56:05;21.20;;;11.87;;
71959;SDS011;59832;51.146;14.024;2022-07-01T02:58:32;19.07;;;12.27;;
71959;SDS011;59832;51.146;14.024;2022-07-01T03:00:58;18.27;;;11.73;;
71959;SDS011;59832;51.146;14.024;2022-07-01T03:03:25;17.53;;;11.00;;
71959;SDS011;59832;51.146;14.024;2022-07-01T03:05:51;17.92;;;11.57;;
71959;SDS011;59832;51.146;14.024;2022-07-01T03:08:17;19.00;;;10.67;;
71959;SDS011;59832;51.146;14.024;2022-07-01T03:10:44;15.27;;;11.00;;
71959;SDS011;59832;51.146;14.024;2022-07-01T03:13:10;22.43;;;11.13;;
71959;SDS011;59832;51.146;14.024;2022-07-01T03:15:37;24.57;;;12.03;;
71959;SDS011;59832;51.146;14.024;2022-07-01T03:18:03;17.73;;;11.73;;
71959;SDS011;59832;51.146;14.024;2022-07-01T03:20:30;18.25;;;11.60;;
71959;SDS011;59832;51.146;14.024;2022-07-01T03:22:56;21.00;;;11.73;;
71959;SDS011;59832;51.146;14.024;2022-07-01T03:25:23;16.63;;;11.30;;
71959;SDS011;59832;51.146;14.024;2022-07-01T03:27:49;17.97;;;11.63;;
71959;SDS011;59832;51.146;14.024;2022-07-01T03:30:16;24.90;;;12.57;;
71959;SDS011;59832;51.146;14.024;2022-07-01T03:32:44;22.02;;;14.00;;
71959;SDS011;59832;51.146;14.024;2022-07-01T03:35:11;24.58;;;14.02;;
71959;SDS011;59832;51.146;14.024;2022-07-01T03:37:56;22.45;;;13.48;;
71959;SDS011;59832;51.146;14.024;2022-07-01T03:40:23;22.20;;;12.63;;
71959;SDS011;59832;51.146;14.024;2022-07-01T03:42:50;18.05;;;12.15;;
71959;SDS011;59832;51.146;14.024;2022-07-01T03:45:16;19.13;;;13.02;;
71959;SDS011;59832;51.146;14.024;2022-07-01T03:47:46;23.85;;;11.95;;
71959;SDS011;59832;51.146;14.024;2022-07-01T03:50:17;19.58;;;12.20;;
71959;SDS011;59832;51.146;14.024;2022-07-01T03:52:46;20.67;;;11.77;;
71959;SDS011;59832;51.146;14.024;2022-07-01T03:55:13;16.43;;;9.83;;
71959;SDS011;59832;51.146;14.024;2022-07-01T03:57:39;16.38;;;10.93;;
71959;SDS011;59832;51.146;14.024;2022-07-01T04:00:06;20.63;;;11.15;;
71959;SDS011;59832;51.146;14.024;2022-07-01T04:05:00;16.55;;;10.40;;
71959;SDS011;59832;51.146;14.024;2022-07-01T04:07:26;20.30;;;10.85;;
71959;SDS011;59832;51.146;14.024;2022-07-01T04:09:53;17.52;;;11.50;;
71959;SDS011;59832;51.146;14.024;2022-07-01T04:12:19;20.90;;;10.57;;
71959;SDS011;59832;51.146;14.024;2022-07-01T04:17:13;28.67;;;13.70;;
71959;SDS011;59832;51.146;14.024;2022-07-01T04:19:40;26.95;;;13.23;;
71959;SDS011;59832;51.146;14.024;2022-07-01T04:22:06;25.20;;;12.90;;
71959;SDS011;59832;51.146;14.024;2022-07-01T04:24:51;19.90;;;11.15;;
71959;SDS011;59832;51.146;14.024;2022-07-01T04:27:18;27.60;;;11.33;;
71959;SDS011;59832;51.146;14.024;2022-07-01T04:29:44;16.67;;;10.67;;
71959;SDS011;59832;51.146;14.024;2022-07-01T04:32:11;21.13;;;10.87;;
71959;SDS011;59832;51.146;14.024;2022-07-01T04:34:37;22.42;;;10.77;;
71959;SDS011;59832;51.146;14.024;2022-07-01T04:37:04;22.92;;;10.65;;
71959;SDS011;59832;51.146;14.024;2022-07-01T04:39:31;25.63;;;11.20;;
71959;SDS011;59832;51.146;14.024;2022-07-01T04:41:57;24.77;;;11.70;;
71959;SDS011;59832;51.146;14.024;2022-07-01T04:49:20;21.38;;;14.27;;
71959;SDS011;59832;51.146;14.024;2022-07-01T04:51:47;19.75;;;12.60;;
71959;SDS011;59832;51.146;14.024;2022-07-01T04:54:14;17.83;;;11.15;;
71959;SDS011;59832;51.146;14.024;2022-07-01T04:56:40;14.45;;;9.43;;
71959;SDS011;59832;51.146;14.024;2022-07-01T04:59:10;20.80;;;9.90;;
71959;SDS011;59832;51.146;14.024;2022-07-01T05:01:37;12.23;;;9.27;;
71959;SDS011;59832;51.146;14.024;2022-07-01T05:04:04;13.02;;;8.93;;
71959;SDS011;59832;51.146;14.024;2022-07-01T05:06:30;11.93;;;9.20;;
71959;SDS011;59832;51.146;14.024;2022-07-01T05:08:57;13.27;;;9.30;;
71959;SDS011;59832;51.146;14.024;2022-07-01T05:11:23;11.65;;;8.65;;
71959;SDS011;59832;51.146;14.024;2022-07-01T05:13:50;13.32;;;8.60;;
71959;SDS011;59832;51.146;14.024;2022-07-01T05:16:16;10.88;;;7.13;;
71959;SDS011;59832;51.146;14.024;2022-07-01T05:18:43;8.52;;;7.47;;
71959;SDS011;59832;51.146;14.024;2022-07-01T05:21:29;10.25;;;7.05;;
71959;SDS011;59832;51.146;14.024;2022-07-01T05:24:14;11.35;;;7.07;;
71959;SDS011;59832;51.146;14.024;2022-07-01T05:26:40;16.30;;;6.40;;
71959;SDS011;59832;51.146;14.024;2022-07-01T05:29:06;13.23;;;6.25;;
71959;SDS011;59832;51.146;14.024;2022-07-01T05:31:33;14.35;;;6.50;;
71959;SDS011;59832;51.146;14.024;2022-07-01T05:33:59;12.80;;;5.93;;
71959;SDS011;59832;51.146;14.024;2022-07-01T05:36:30;7.63;;;6.15;;
71959;SDS011;59832;51.146;14.024;2022-07-01T05:38:56;16.67;;;6.43;;
71959;SDS011;59832;51.146;14.024;2022-07-01T05:41:23;7.60;;;5.53;;
71959;SDS011;59832;51.146;14.024;2022-07-01T05:43:49;17.00;;;5.68;;
71959;SDS011;59832;51.146;14.024;2022-07-01T05:46:16;9.98;;;5.43;;
71959;SDS011;59832;51.146;14.024;2022-07-01T05:48:42;13.40;;;6.00;;
71959;SDS011;59832;51.146;14.024;2022-07-01T05:51:09;8.40;;;5.93;;
71959;SDS011;59832;51.146;14.024;2022-07-01T05:53:36;10.18;;;5.97;;
71959;SDS011;59832;51.146;14.024;2022-07-01T05:56:02;8.68;;;6.00;;
71959;SDS011;59832;51.146;14.024;2022-07-01T05:58:29;9.13;;;6.43;;
71959;SDS011;59832;51.146;14.024;2022-07-01T06:00:55;11.93;;;6.82;;
71959;SDS011;59832;51.146;14.024;2022-07-01T06:03:33;15.73;;;6.22;;
71959;SDS011;59832;51.146;14.024;2022-07-01T06:06:00;10.07;;;6.50;;
71959;SDS011;59832;51.146;14.024;2022-07-01T06:08:26;11.68;;;7.07;;
71959;SDS011;59832;51.146;14.024;2022-07-01T06:10:52;12.63;;;7.13;;
71959;SDS011;59832;51.146;14.024;2022-07-01T06:13:19;12.27;;;7.30;;
71959;SDS011;59832;51.146;14.024;2022-07-01T06:15:45;16.23;;;7.60;;
71959;SDS011;59832;51.146;14.024;2022-07-01T06:18:12;9.93;;;7.15;;
71959;SDS011;59832;51.146;14.024;2022-07-01T06:20:38;14.23;;;7.38;;
71959;SDS011;59832;51.146;14.024;2022-07-01T06:23:05;10.85;;;7.50;;
71959;SDS011;59832;51.146;14.024;2022-07-01T06:25:31;12.82;;;7.10;;
71959;SDS011;59832;51.146;14.024;2022-07-01T06:27:58;16.83;;;7.40;;
71959;SDS011;59832;51.146;14.024;2022-07-01T06:30:25;14.43;;;7.65;;
71959;SDS011;59832;51.146;14.024;2022-07-01T06:32:51;13.57;;;8.90;;
71959;SDS011;59832;51.146;14.024;2022-07-01T06:35:18;8.88;;;7.78;;
71959;SDS011;59832;51.146;14.024;2022-07-01T06:37:44;12.43;;;8.52;;
71959;SDS011;59832;51.146;14.024;2022-07-01T06:40:12;16.60;;;8.15;;
71959;SDS011;59832;51.146;14.024;2022-07-01T06:42:38;14.52;;;8.05;;
71959;SDS011;59832;51.146;14.024;2022-07-01T06:45:05;12.55;;;8.05;;
71959;SDS011;59832;51.146;14.024;2022-07-01T06:49:58;15.35;;;8.00;;
71959;SDS011;59832;51.146;14.024;2022-07-01T06:52:29;12.60;;;7.30;;
71959;SDS011;59832;51.146;14.024;2022-07-01T06:54:56;15.55;;;8.23;;
71959;SDS011;59832;51.146;14.024;2022-07-01T06:57:22;11.13;;;9.57;;
71959;SDS011;59832;51.146;14.024;2022-07-01T06:59:49;16.63;;;11.07;;
71959;SDS011;59832;51.146;14.024;2022-07-01T07:02:15;19.80;;;11.05;;
71959;SDS011;59832;51.146;14.024;2022-07-01T07:04:42;21.02;;;12.55;;
71959;SDS011;59832;51.146;14.024;2022-07-01T07:07:25;18.73;;;12.07;;
71959;SDS011;59832;51.146;14.024;2022-07-01T07:09:51;19.25;;;12.45;;
71959;SDS011;59832;51.146;14.024;2022-07-01T07:12:18;16.48;;;12.52;;
71959;SDS011;59832;51.146;14.024;2022-07-01T07:14:44;19.92;;;14.32;;
71959;SDS011;59832;51.146;14.024;2022-07-01T07:17:10;19.30;;;13.52;;
71959;SDS011;59832;51.146;14.024;2022-07-01T07:19:37;21.27;;;15.50;;
71959;SDS011;59832;51.146;14.024;2022-07-01T07:22:03;22.23;;;15.18;;
71959;SDS011;59832;51.146;14.024;2022-07-01T07:24:30;18.50;;;13.75;;
71959;SDS011;59832;51.146;14.024;2022-07-01T07:26:56;19.83;;;15.90;;
71959;SDS011;59832;51.146;14.024;2022-07-01T07:29:23;21.80;;;15.25;;
71959;SDS011;59832;51.146;14.024;2022-07-01T07:31:49;24.50;;;16.55;;
71959;SDS011;59832;51.146;14.024;2022-07-01T07:34:16;21.90;;;15.00;;
71959;SDS011;59832;51.146;14.024;2022-07-01T07:36:42;24.33;;;16.15;;
71959;SDS011;59832;51.146;14.024;2022-07-01T07:39:08;25.40;;;16.63;;
71959;SDS011;59832;51.146;14.024;2022-07-01T07:41:35;25.45;;;16.33;;
71959;SDS011;59832;51.146;14.024;2022-07-01T07:44:01;22.80;;;16.35;;
71959;SDS011;59832;51.146;14.024;2022-07-01T07:46:28;22.88;;;15.30;;
71959;SDS011;59832;51.146;14.024;2022-07-01T07:48:54;25.83;;;16.45;;
71959;SDS011;59832;51.146;14.024;2022-07-01T07:51:21;24.45;;;17.27;;
71959;SDS011;59832;51.146;14.024;2022-07-01T07:53:51;22.73;;;17.40;;
71959;SDS011;59832;51.146;14.024;2022-07-01T07:56:18;24.35;;;17.60;;
71959;SDS011;59832;51.146;14.024;2022-07-01T07:58:44;23.67;;;16.20;;
71959;SDS011;59832;51.146;14.024;2022-07-01T08:01:11;23.83;;;14.75;;
71959;SDS011;59832;51.146;14.024;2022-07-01T08:03:38;20.05;;;14.30;;
71959;SDS011;59832;51.146;14.024;2022-07-01T08:06:04;20.20;;;13.52;;
71959;SDS011;59832;51.146;14.024;2022-07-01T08:08:31;20.33;;;13.27;;
71959;SDS011;59832;51.146;14.024;2022-07-01T08:10:58;19.55;;;12.98;;
71959;SDS011;59832;51.146;14.024;2022-07-01T08:13:24;16.60;;;13.77;;
71959;SDS011;59832;51.146;14.024;2022-07-01T08:15:51;19.52;;;14.20;;
71959;SDS011;59832;51.146;14.024;2022-07-01T08:18:17;20.33;;;15.77;;
71959;SDS011;59832;51.146;14.024;2022-07-01T08:20:44;18.83;;;16.02;;
71959;SDS011;59832;51.146;14.024;2022-07-01T08:23:12;22.60;;;17.50;;
71959;SDS011;59832;51.146;14.024;2022-07-01T08:25:39;27.60;;;17.70;;
71959;SDS011;59832;51.146;14.024;2022-07-01T08:28:06;23.80;;;17.85;;
71959;SDS011;59832;51.146;14.024;2022-07-01T08:30:32;24.05;;;18.02;;
71959;SDS011;59832;51.146;14.024;2022-07-01T08:32:59;20.83;;;16.20;;
71959;SDS011;59832;51.146;14.024;2022-07-01T08:35:26;21.63;;;15.88;;
71959;SDS011;59832;51.146;14.024;2022-07-01T08:37:53;21.00;;;15.68;;
71959;SDS011;59832;51.146;14.024;2022-07-01T08:40:19;16.98;;;14.35;;
71959;SDS011;59832;51.146;14.024;2022-07-01T08:42:50;16.00;;;14.30;;
71959;SDS011;59832;51.146;14.024;2022-07-01T08:45:16;20.27;;;15.10;;
71959;SDS011;59832;51.146;14.024;2022-07-01T08:47:52;16.98;;;15.27;;
71959;SDS011;59832;51.146;14.024;2022-07-01T08:50:24;20.98;;;16.55;;
71959;SDS011;59832;51.146;14.024;2022-07-01T08:52:51;18.42;;;15.40;;
71959;SDS011;59832;51.146;14.024;2022-07-01T08:57:46;21.27;;;16.38;;
71959;SDS011;59832;51.146;14.024;2022-07-01T09:02:49;24.70;;;16.90;;
71959;SDS011;59832;51.146;14.024;2022-07-01T09:05:19;21.30;;;19.00;;
71959;SDS011;59832;51.146;14.024;2022-07-01T09:07:47;22.75;;;19.45;;
71959;SDS011;59832;51.146;14.024;2022-07-01T09:10:17;21.88;;;19.45;;
71959;SDS011;59832;51.146;14.024;2022-07-01T09:12:47;22.65;;;18.83;;
71959;SDS011;59832;51.146;14.024;2022-07-01T09:15:18;25.40;;;19.10;;
71959;SDS011;59832;51.146;14.024;2022-07-01T09:17:57;30.35;;;19.40;;
71959;SDS011;59832;51.146;14.024;2022-07-01T09:20:30;28.63;;;19.73;;
71959;SDS011;59832;51.146;14.024;2022-07-01T09:22:59;23.15;;;19.65;;
71959;SDS011;59832;51.146;14.024;2022-07-01T09:25:41;26.35;;;20.60;;
71959;SDS011;59832;51.146;14.024;2022-07-01T09:28:23;26.60;;;20.08;;
71959;SDS011;59832;51.146;14.024;2022-07-01T09:30:52;22.83;;;19.42;;
71959;SDS011;59832;51.146;14.024;2022-07-01T09:33:21;26.33;;;19.35;;
71959;SDS011;59832;51.146;14.024;2022-07-01T09:35:51;26.15;;;20.85;;
71959;SDS011;59832;51.146;14.024;2022-07-01T09:38:19;28.95;;;20.48;;
71959;SDS011;59832;51.146;14.024;2022-07-01T09:40:59;32.30;;;22.33;;
71959;SDS011;59832;51.146;14.024;2022-07-01T09:43:34;38.88;;;24.15;;
71959;SDS011;59832;51.146;14.024;2022-07-01T09:46:02;37.60;;;24.30;;
71959;SDS011;59832;51.146;14.024;2022-07-01T09:51:00;33.58;;;25.25;;
71959;SDS011;59832;51.146;14.024;2022-07-01T09:53:28;38.65;;;24.67;;
71959;SDS011;59832;51.146;14.024;2022-07-01T09:55:55;43.42;;;25.50;;
71959;SDS011;59832;51.146;14.024;2022-07-01T09:58:21;37.00;;;24.92;;
71959;SDS011;59832;51.146;14.024;2022-07-01T10:00:48;41.60;;;25.35;;
71959;SDS011;59832;51.146;14.024;2022-07-01T10:03:15;40.42;;;25.65;;
71959;SDS011;59832;51.146;14.024;2022-07-01T10:05:48;41.00;;;27.08;;
71959;SDS011;59832;51.146;14.024;2022-07-01T10:14:04;39.67;;;27.70;;
71959;SDS011;59832;51.146;14.024;2022-07-01T10:16:32;44.25;;;26.70;;
71959;SDS011;59832;51.146;14.024;2022-07-01T10:21:46;33.88;;;24.75;;
71959;SDS011;59832;51.146;14.024;2022-07-01T10:24:14;36.72;;;24.08;;
71959;SDS011;59832;51.146;14.024;2022-07-01T10:26:42;31.15;;;22.02;;
71959;SDS011;59832;51.146;14.024;2022-07-01T10:32:03;28.95;;;20.20;;
71959;SDS011;59832;51.146;14.024;2022-07-01T10:35:11;28.60;;;18.27;;
71959;SDS011;59832;51.146;14.024;2022-07-01T10:37:56;21.60;;;17.15;;
71959;SDS011;59832;51.146;14.024;2022-07-01T10:40:42;21.92;;;16.13;;
71959;SDS011;59832;51.146;14.024;2022-07-01T10:43:32;20.83;;;17.00;;
71959;SDS011;59832;51.146;14.024;2022-07-01T10:45:59;17.63;;;15.70;;
71959;SDS011;59832;51.146;14.024;2022-07-01T10:48:26;17.10;;;14.98;;
71959;SDS011;59832;51.146;14.024;2022-07-01T10:50:56;16.38;;;14.50;;
71959;SDS011;59832;51.146;14.024;2022-07-01T10:53:22;15.13;;;12.82;;
71959;SDS011;59832;51.146;14.024;2022-07-01T10:55:50;15.32;;;12.27;;
71959;SDS011;59832;51.146;14.024;2022-07-01T10:58:35;14.07;;;12.18;;
71959;SDS011;59832;51.146;14.024;2022-07-01T11:01:03;16.40;;;11.50;;
71959;SDS011;59832;51.146;14.024;2022-07-01T11:03:33;14.68;;;12.07;;
71959;SDS011;59832;51.146;14.024;2022-07-01T11:06:01;15.70;;;11.32;;
71959;SDS011;59832;51.146;14.024;2022-07-01T11:08:28;14.02;;;11.68;;
71959;SDS011;59832;51.146;14.024;2022-07-01T11:10:57;12.60;;;10.60;;
71959;SDS011;59832;51.146;14.024;2022-07-01T11:13:27;12.52;;;10.18;;
71959;SDS011;59832;51.146;14.024;2022-07-01T11:15:55;15.52;;;10.40;;
71959;SDS011;59832;51.146;14.024;2022-07-01T11:18:22;11.73;;;10.45;;
71959;SDS011;59832;51.146;14.024;2022-07-01T11:20:49;11.13;;;9.35;;
71959;SDS011;59832;51.146;14.024;2022-07-01T11:23:15;9.27;;;8.37;;
71959;SDS011;59832;51.146;14.024;2022-07-01T11:25:42;7.93;;;7.28;;
71959;SDS011;59832;51.146;14.024;2022-07-01T11:28:10;7.72;;;6.80;;
71959;SDS011;59832;51.146;14.024;2022-07-01T11:30:37;12.05;;;8.75;;
71959;SDS011;59832;51.146;14.024;2022-07-01T11:33:03;13.70;;;9.43;;
71959;SDS011;59832;51.146;14.024;2022-07-01T11:35:30;10.87;;;9.73;;
71959;SDS011;59832;51.146;14.024;2022-07-01T11:38:20;14.50;;;9.80;;
71959;SDS011;59832;51.146;14.024;2022-07-01T11:41:08;14.68;;;10.90;;
71959;SDS011;59832;51.146;14.024;2022-07-01T11:43:45;13.18;;;10.70;;
71959;SDS011;59832;51.146;14.024;2022-07-01T11:46:12;11.40;;;10.23;;
71959;SDS011;59832;51.146;14.024;2022-07-01T11:48:40;10.88;;;9.82;;
71959;SDS011;59832;51.146;14.024;2022-07-01T11:51:09;13.68;;;10.55;;
71959;SDS011;59832;51.146;14.024;2022-07-01T11:53:39;14.43;;;9.70;;
71959;SDS011;59832;51.146;14.024;2022-07-01T11:56:07;10.68;;;9.57;;
71959;SDS011;59832;51.146;14.024;2022-07-01T11:58:52;10.50;;;9.23;;
71959;SDS011;59832;51.146;14.024;2022-07-01T12:01:20;9.25;;;8.43;;
71959;SDS011;59832;51.146;14.024;2022-07-01T12:03:56;9.90;;;8.68;;
71959;SDS011;59832;51.146;14.024;2022-07-01T12:06:27;9.27;;;8.38;;
71959;SDS011;59832;51.146;14.024;2022-07-01T12:08:54;8.55;;;7.85;;
71959;SDS011;59832;51.146;14.024;2022-07-01T12:11:23;8.07;;;7.38;;
71959;SDS011;59832;51.146;14.024;2022-07-01T12:13:52;7.72;;;7.18;;
71959;SDS011;59832;51.146;14.024;2022-07-01T12:16:19;9.15;;;7.47;;
71959;SDS011;59832;51.146;14.024;2022-07-01T12:21:27;8.30;;;7.57;;
71959;SDS011;59832;51.146;14.024;2022-07-01T12:24:02;11.25;;;7.22;;
71959;SDS011;59832;51.146;14.024;2022-07-01T12:26:29;7.25;;;6.85;;
71959;SDS011;59832;51.146;14.024;2022-07-01T12:28:56;7.33;;;6.70;;
71959;SDS011;59832;51.146;14.024;2022-07-01T12:31:22;6.85;;;6.30;;
71959;SDS011;59832;51.146;14.024;2022-07-01T12:33:49;6.85;;;6.15;;
71959;SDS011;59832;51.146;14.024;2022-07-01T12:36:17;7.40;;;5.85;;
71959;SDS011;59832;51.146;14.024;2022-07-01T12:38:43;6.10;;;5.60;;
71959;SDS011;59832;51.146;14.024;2022-07-01T12:41:26;7.78;;;5.53;;
71959;SDS011;59832;51.146;14.024;2022-07-01T12:43:53;6.95;;;5.53;;
71959;SDS011;59832;51.146;14.024;2022-07-01T12:46:28;9.57;;;6.10;;
71959;SDS011;59832;51.146;14.024;2022-07-01T12:48:57;6.37;;;5.77;;
71959;SDS011;59832;51.146;14.024;2022-07-01T12:51:33;6.45;;;5.95;;
71959;SDS011;59832;51.146;14.024;2022-07-01T12:54:00;6.80;;;6.20;;
71959;SDS011;59832;51.146;14.024;2022-07-01T12:56:27;5.20;;;4.80;;
71959;SDS011;59832;51.146;14.024;2022-07-01T12:58:55;5.18;;;3.80;;
71959;SDS011;59832;51.146;14.024;2022-07-01T13:01:21;3.55;;;3.30;;
71959;SDS011;59832;51.146;14.024;2022-07-01T13:03:49;3.28;;;3.08;;
71959;SDS011;59832;51.146;14.024;2022-07-01T13:06:16;4.28;;;2.40;;
71959;SDS011;59832;51.146;14.024;2022-07-01T13:08:42;2.88;;;2.17;;
71959;SDS011;59832;51.146;14.024;2022-07-01T13:11:08;4.03;;;1.87;;
71959;SDS011;59832;51.146;14.024;2022-07-01T13:13:35;1.77;;;1.67;;
71959;SDS011;59832;51.146;14.024;2022-07-01T13:16:01;2.93;;;1.30;;
71959;SDS011;59832;51.146;14.024;2022-07-01T13:18:28;2.85;;;1.02;;
71959;SDS011;59832;51.146;14.024;2022-07-01T13:20:54;1.37;;;1.27;;
71959;SDS011;59832;51.146;14.024;2022-07-01T13:23:21;1.00;;;0.80;;
71959;SDS011;59832;51.146;14.024;2022-07-01T13:25:47;6.10;;;1.13;;
71959;SDS011;59832;51.146;14.024;2022-07-01T13:28:14;1.08;;;0.98;;
71959;SDS011;59832;51.146;14.024;2022-07-01T13:30:40;1.03;;;1.03;;
71959;SDS011;59832;51.146;14.024;2022-07-01T13:33:07;3.63;;;1.23;;
71959;SDS011;59832;51.146;14.024;2022-07-01T13:35:33;1.47;;;1.30;;
71959;SDS011;59832;51.146;14.024;2022-07-01T13:38:00;1.53;;;1.00;;
71959;SDS011;59832;51.146;14.024;2022-07-01T13:40:26;1.23;;;1.00;;
71959;SDS011;59832;51.146;14.024;2022-07-01T13:42:52;2.20;;;1.03;;
71959;SDS011;59832;51.146;14.024;2022-07-01T13:45:19;1.77;;;1.67;;
71959;SDS011;59832;51.146;14.024;2022-07-01T13:47:46;1.98;;;1.40;;
71959;SDS011;59832;51.146;14.024;2022-07-01T13:50:12;1.50;;;1.40;;
71959;SDS011;59832;51.146;14.024;2022-07-01T13:52:39;1.35;;;1.25;;
71959;SDS011;59832;51.146;14.024;2022-07-01T13:55:12;1.73;;;1.42;;
71959;SDS011;59832;51.146;14.024;2022-07-01T13:57:39;2.30;;;2.20;;
71959;SDS011;59832;51.146;14.024;2022-07-01T14:00:05;3.00;;;2.80;;
71959;SDS011;59832;51.146;14.024;2022-07-01T14:02:32;4.07;;;3.78;;
71959;SDS011;59832;51.146;14.024;2022-07-01T14:04:59;5.35;;;4.95;;
71959;SDS011;59832;51.146;14.024;2022-07-01T14:07:25;5.30;;;4.90;;
71959;SDS011;59832;51.146;14.024;2022-07-01T14:09:52;4.93;;;4.63;;
71959;SDS011;59832;51.146;14.024;2022-07-01T14:12:18;6.67;;;6.13;;
71959;SDS011;59832;51.146;14.024;2022-07-01T14:14:53;6.43;;;5.80;;
71959;SDS011;59832;51.146;14.024;2022-07-01T14:17:21;6.97;;;5.40;;
71959;SDS011;59832;51.146;14.024;2022-07-01T14:19:47;5.90;;;5.50;;
71959;SDS011;59832;51.146;14.024;2022-07-01T14:22:14;7.40;;;6.88;;
71959;SDS011;59832;51.146;14.024;2022-07-01T14:24:41;7.63;;;6.93;;
71959;SDS011;59832;51.146;14.024;2022-07-01T14:27:07;7.05;;;6.45;;
71959;SDS011;59832;51.146;14.024;2022-07-01T14:29:34;9.63;;;7.15;;
71959;SDS011;59832;51.146;14.024;2022-07-01T14:32:00;7.25;;;6.75;;
71959;SDS011;59832;51.146;14.024;2022-07-01T14:34:27;7.00;;;6.50;;
71959;SDS011;59832;51.146;14.024;2022-07-01T14:36:53;7.90;;;7.20;;
71959;SDS011;59832;51.146;14.024;2022-07-01T14:39:20;7.32;;;6.72;;
71959;SDS011;59832;51.146;14.024;2022-07-01T14:41:46;7.65;;;6.95;;
71959;SDS011;59832;51.146;14.024;2022-07-01T14:44:21;7.72;;;7.13;;
71959;SDS011;59832;51.146;14.024;2022-07-01T14:46:48;7.30;;;6.75;;
71959;SDS011;59832;51.146;14.024;2022-07-01T14:49:14;5.63;;;5.20;;
71959;SDS011;59832;51.146;14.024;2022-07-01T14:51:43;5.20;;;4.88;;
71959;SDS011;59832;51.146;14.024;2022-07-01T14:54:10;7.47;;;4.50;;
71959;SDS011;59832;51.146;14.024;2022-07-01T14:56:37;5.90;;;5.07;;
71959;SDS011;59832;51.146;14.024;2022-07-01T14:59:04;7.40;;;4.72;;
71959;SDS011;59832;51.146;14.024;2022-07-01T15:01:35;5.35;;;4.25;;